sensor_id;sensor_type;location;lat;lon;timestamp;P1;durP1;ratioP1;P2;durP2;ratioP2
43086;SDS011;28708;52.224;6.924;2023-05-07T00:00:48;27.80;;;24.37;;
43086;SDS011;28708;52.224;6.924;2023-05-07T00:03:14;27.67;;;24.67;;
43086;SDS011;28708;52.224;6.924;2023-05-07T00:05:40;30.30;;;25.23;;
43086;SDS011;28708;52.224;6.924;2023-05-07T00:08:06;25.90;;;23.10;;
43086;SDS011;28708;52.224;6.924;2023-05-07T00:10:32;31.70;;;23.40;;
43086;SDS011;28708;52.224;6.924;2023-05-07T00:12:57;26.43;;;22.20;;
43086;SDS011;28708;52.224;6.924;2023-05-07T00:15:23;27.27;;;24.37;;
43086;SDS011;28708;52.224;6.924;2023-05-07T00:17:53;27.42;;;23.70;;
43086;SDS011;28708;52.224;6.924;2023-05-07T00:20:18;25.70;;;23.00;;
43086;SDS011;28708;52.224;6.924;2023-05-07T00:22:44;26.60;;;23.23;;
43086;SDS011;28708;52.224;6.924;2023-05-07T00:25:10;25.57;;;22.83;;
43086;SDS011;28708;52.224;6.924;2023-05-07T00:27:35;25.20;;;22.53;;
43086;SDS011;28708;52.224;6.924;2023-05-07T00:30:01;26.67;;;23.90;;
43086;SDS011;28708;52.224;6.924;2023-05-07T00:32:27;26.77;;;23.67;;
43086;SDS011;28708;52.224;6.924;2023-05-07T00:34:52;25.83;;;23.03;;
43086;SDS011;28708;52.224;6.924;2023-05-07T00:37:18;25.30;;;22.17;;
43086;SDS011;28708;52.224;6.924;2023-05-07T00:39:44;29.03;;;23.60;;
43086;SDS011;28708;52.224;6.924;2023-05-07T00:42:09;25.73;;;22.63;;
43086;SDS011;28708;52.224;6.924;2023-05-07T00:44:35;25.27;;;22.60;;
43086;SDS011;28708;52.224;6.924;2023-05-07T00:47:04;25.42;;;22.10;;
43086;SDS011;28708;52.224;6.924;2023-05-07T00:49:35;24.77;;;22.17;;
43086;SDS011;28708;52.224;6.924;2023-05-07T00:52:03;24.50;;;21.73;;
43086;SDS011;28708;52.224;6.924;2023-05-07T00:54:35;25.10;;;22.40;;
43086;SDS011;28708;52.224;6.924;2023-05-07T00:57:02;26.20;;;22.10;;
43086;SDS011;28708;52.224;6.924;2023-05-07T00:59:29;25.73;;;22.80;;
43086;SDS011;28708;52.224;6.924;2023-05-07T01:01:56;26.30;;;23.03;;
43086;SDS011;28708;52.224;6.924;2023-05-07T01:04:22;26.90;;;24.00;;
43086;SDS011;28708;52.224;6.924;2023-05-07T01:06:48;27.83;;;24.90;;
43086;SDS011;28708;52.224;6.924;2023-05-07T01:09:15;26.40;;;23.57;;
43086;SDS011;28708;52.224;6.924;2023-05-07T01:11:42;28.60;;;25.23;;
43086;SDS011;28708;52.224;6.924;2023-05-07T01:14:08;29.60;;;26.30;;
43086;SDS011;28708;52.224;6.924;2023-05-07T01:16:36;33.03;;;24.73;;
43086;SDS011;28708;52.224;6.924;2023-05-07T01:19:02;31.27;;;26.60;;
43086;SDS011;28708;52.224;6.924;2023-05-07T01:21:28;32.10;;;27.57;;
43086;SDS011;28708;52.224;6.924;2023-05-07T01:24:00;30.20;;;25.70;;
43086;SDS011;28708;52.224;6.924;2023-05-07T01:26:28;29.70;;;26.37;;
43086;SDS011;28708;52.224;6.924;2023-05-07T01:28:53;34.43;;;26.87;;
43086;SDS011;28708;52.224;6.924;2023-05-07T01:31:19;30.93;;;26.87;;
43086;SDS011;28708;52.224;6.924;2023-05-07T01:33:45;33.70;;;27.13;;
43086;SDS011;28708;52.224;6.924;2023-05-07T01:36:13;30.50;;;26.07;;
43086;SDS011;28708;52.224;6.924;2023-05-07T01:38:39;33.80;;;26.07;;
43086;SDS011;28708;52.224;6.924;2023-05-07T01:41:07;30.53;;;24.60;;
43086;SDS011;28708;52.224;6.924;2023-05-07T01:43:33;27.67;;;22.90;;
43086;SDS011;28708;52.224;6.924;2023-05-07T01:45:59;28.40;;;23.33;;
43086;SDS011;28708;52.224;6.924;2023-05-07T01:48:26;31.67;;;24.13;;
43086;SDS011;28708;52.224;6.924;2023-05-07T01:50:52;28.23;;;22.87;;
43086;SDS011;28708;52.224;6.924;2023-05-07T01:53:18;29.70;;;22.33;;
43086;SDS011;28708;52.224;6.924;2023-05-07T01:55:43;29.10;;;21.93;;
43086;SDS011;28708;52.224;6.924;2023-05-07T01:58:10;30.33;;;22.53;;
43086;SDS011;28708;52.224;6.924;2023-05-07T02:00:36;30.30;;;21.20;;
43086;SDS011;28708;52.224;6.924;2023-05-07T02:03:01;28.43;;;21.73;;
43086;SDS011;28708;52.224;6.924;2023-05-07T02:05:36;30.03;;;21.93;;
43086;SDS011;28708;52.224;6.924;2023-05-07T02:08:21;29.23;;;21.40;;
43086;SDS011;28708;52.224;6.924;2023-05-07T02:10:46;29.63;;;21.20;;
43086;SDS011;28708;52.224;6.924;2023-05-07T02:13:12;36.13;;;23.10;;
43086;SDS011;28708;52.224;6.924;2023-05-07T02:15:38;37.13;;;23.93;;
43086;SDS011;28708;52.224;6.924;2023-05-07T02:18:04;28.33;;;22.40;;
43086;SDS011;28708;52.224;6.924;2023-05-07T02:20:31;33.90;;;24.80;;
43086;SDS011;28708;52.224;6.924;2023-05-07T02:22:57;30.93;;;22.70;;
43086;SDS011;28708;52.224;6.924;2023-05-07T02:25:25;31.10;;;22.87;;
43086;SDS011;28708;52.224;6.924;2023-05-07T02:27:51;35.23;;;22.70;;
43086;SDS011;28708;52.224;6.924;2023-05-07T02:30:20;38.77;;;25.47;;
43086;SDS011;28708;52.224;6.924;2023-05-07T02:32:47;40.87;;;25.80;;
43086;SDS011;28708;52.224;6.924;2023-05-07T02:35:13;38.17;;;25.70;;
43086;SDS011;28708;52.224;6.924;2023-05-07T02:37:38;38.30;;;26.43;;
43086;SDS011;28708;52.224;6.924;2023-05-07T02:40:05;34.57;;;25.50;;
43086;SDS011;28708;52.224;6.924;2023-05-07T02:42:31;36.90;;;26.00;;
43086;SDS011;28708;52.224;6.924;2023-05-07T02:44:56;39.73;;;26.20;;
43086;SDS011;28708;52.224;6.924;2023-05-07T02:47:23;36.83;;;26.73;;
43086;SDS011;28708;52.224;6.924;2023-05-07T02:49:51;35.57;;;27.23;;
43086;SDS011;28708;52.224;6.924;2023-05-07T02:52:18;34.93;;;26.00;;
43086;SDS011;28708;52.224;6.924;2023-05-07T02:54:43;36.40;;;26.47;;
43086;SDS011;28708;52.224;6.924;2023-05-07T02:57:09;36.97;;;26.40;;
43086;SDS011;28708;52.224;6.924;2023-05-07T02:59:35;39.13;;;28.43;;
43086;SDS011;28708;52.224;6.924;2023-05-07T03:02:01;41.60;;;28.50;;
43086;SDS011;28708;52.224;6.924;2023-05-07T03:04:27;41.20;;;27.63;;
43086;SDS011;28708;52.224;6.924;2023-05-07T03:06:53;38.03;;;27.97;;
43086;SDS011;28708;52.224;6.924;2023-05-07T03:09:18;38.87;;;28.03;;
43086;SDS011;28708;52.224;6.924;2023-05-07T03:11:44;42.37;;;30.17;;
43086;SDS011;28708;52.224;6.924;2023-05-07T03:14:10;41.07;;;30.53;;
43086;SDS011;28708;52.224;6.924;2023-05-07T03:16:39;39.83;;;29.83;;
43086;SDS011;28708;52.224;6.924;2023-05-07T03:19:05;44.08;;;29.35;;
43086;SDS011;28708;52.224;6.924;2023-05-07T03:21:30;39.60;;;29.73;;
43086;SDS011;28708;52.224;6.924;2023-05-07T03:23:58;44.37;;;30.70;;
43086;SDS011;28708;52.224;6.924;2023-05-07T03:26:24;42.53;;;29.63;;
43086;SDS011;28708;52.224;6.924;2023-05-07T03:28:50;46.97;;;32.80;;
43086;SDS011;28708;52.224;6.924;2023-05-07T03:31:16;44.33;;;29.70;;
43086;SDS011;28708;52.224;6.924;2023-05-07T03:33:50;41.50;;;29.50;;
43086;SDS011;28708;52.224;6.924;2023-05-07T03:36:17;45.53;;;31.53;;
43086;SDS011;28708;52.224;6.924;2023-05-07T03:38:43;40.30;;;28.67;;
43086;SDS011;28708;52.224;6.924;2023-05-07T03:41:08;39.10;;;30.37;;
43086;SDS011;28708;52.224;6.924;2023-05-07T03:43:34;39.30;;;29.13;;
43086;SDS011;28708;52.224;6.924;2023-05-07T03:46:05;44.50;;;31.10;;
43086;SDS011;28708;52.224;6.924;2023-05-07T03:48:31;43.57;;;31.27;;
43086;SDS011;28708;52.224;6.924;2023-05-07T03:50:58;42.53;;;29.63;;
43086;SDS011;28708;52.224;6.924;2023-05-07T03:53:27;44.75;;;31.27;;
43086;SDS011;28708;52.224;6.924;2023-05-07T03:55:53;40.33;;;29.57;;
43086;SDS011;28708;52.224;6.924;2023-05-07T03:58:19;40.47;;;30.63;;
43086;SDS011;28708;52.224;6.924;2023-05-07T04:00:45;45.60;;;31.53;;
43086;SDS011;28708;52.224;6.924;2023-05-07T04:03:18;44.80;;;31.60;;
43086;SDS011;28708;52.224;6.924;2023-05-07T04:05:44;39.50;;;29.77;;
43086;SDS011;28708;52.224;6.924;2023-05-07T04:08:10;42.13;;;28.77;;
43086;SDS011;28708;52.224;6.924;2023-05-07T04:10:41;40.47;;;29.90;;
43086;SDS011;28708;52.224;6.924;2023-05-07T04:13:09;39.77;;;29.47;;
43086;SDS011;28708;52.224;6.924;2023-05-07T04:15:35;44.30;;;31.03;;
43086;SDS011;28708;52.224;6.924;2023-05-07T04:18:03;42.47;;;31.37;;
43086;SDS011;28708;52.224;6.924;2023-05-07T04:20:33;45.30;;;30.60;;
43086;SDS011;28708;52.224;6.924;2023-05-07T04:26:01;45.37;;;30.37;;
